createdAt,value
2022-12-06T00:03:03.111Z,14.88
2022-12-06T00:08:06.865Z,16.75
2022-12-06T00:13:10.231Z,19.52
2022-12-06T00:18:15.490Z,19.73
2022-12-06T00:23:19.088Z,19.90
2022-12-06T00:28:22.670Z,18.40
2022-12-06T00:33:27.675Z,20.60
2022-12-06T00:38:31.588Z,18.08
2022-12-06T00:43:36.377Z,19.77
2022-12-06T00:48:41.090Z,19.65
2022-12-06T00:53:46.131Z,19.40
2022-12-06T00:58:49.753Z,18.00
2022-12-06T01:03:56.614Z,17.15
2022-12-06T01:09:02.187Z,17.95
2022-12-06T01:14:05.666Z,18.58
2022-12-06T01:19:12.489Z,19.33
2022-12-06T01:24:15.855Z,20.95
2022-12-06T01:29:19.183Z,19.10
2022-12-06T01:34:23.961Z,20.45
2022-12-06T01:39:27.344Z,20.75
2022-12-06T01:44:42.860Z,22.45
2022-12-06T01:49:53.450Z,20.98
2022-12-06T01:54:57.535Z,20.15
2022-12-06T02:00:01.873Z,20.13
2022-12-06T02:05:09.101Z,22.40
2022-12-06T02:10:12.874Z,21.65
2022-12-06T02:15:16.706Z,21.52
2022-12-06T02:20:32.225Z,21.73
2022-12-06T02:26:05.636Z,19.55
2022-12-06T02:31:16.127Z,20.20
2022-12-06T02:36:28.444Z,20.67
2022-12-06T02:41:36.810Z,19.80
2022-12-06T02:46:43.822Z,20.83
2022-12-06T02:51:48.678Z,21.67
2022-12-06T02:56:52.055Z,21.27
2022-12-06T03:02:00.945Z,20.70
2022-12-06T03:07:20.652Z,19.80
2022-12-06T03:12:31.859Z,19.73
2022-12-06T03:17:41.769Z,20.55
2022-12-06T03:22:49.647Z,20.30
2022-12-06T03:27:55.740Z,20.35
2022-12-06T03:33:02.372Z,20.73
2022-12-06T03:38:10.363Z,21.25
2022-12-06T03:43:13.835Z,18.38
2022-12-06T03:48:22.996Z,19.30
2022-12-06T03:53:26.630Z,19.40
2022-12-06T03:58:30.057Z,20.27
2022-12-06T04:03:34.860Z,19.08
2022-12-06T04:08:39.095Z,18.90
2022-12-06T04:13:42.945Z,18.73
2022-12-06T04:18:48.949Z,18.90
2022-12-06T04:23:53.680Z,19.63
2022-12-06T04:29:14.477Z,19.02
2022-12-06T04:34:37.410Z,20.30
2022-12-06T04:39:41.068Z,21.02
2022-12-06T04:44:46.570Z,20.98
2022-12-06T04:49:51.280Z,20.67
2022-12-06T04:54:54.600Z,20.50
2022-12-06T04:59:58.619Z,18.88
2022-12-06T05:05:03.721Z,19.02
2022-12-06T05:10:08.960Z,18.58
2022-12-06T05:15:15.798Z,17.90
2022-12-06T05:20:20.879Z,17.88
2022-12-06T05:25:24.923Z,18.02
2022-12-06T05:30:28.272Z,17.92
2022-12-06T05:35:32.940Z,18.10
2022-12-06T05:40:36.451Z,17.55
2022-12-06T05:45:39.850Z,20.27
2022-12-06T05:50:47.066Z,20.15
2022-12-06T05:55:50.714Z,18.77
2022-12-06T06:00:54.075Z,20.75
2022-12-06T06:06:00.927Z,17.15
2022-12-06T06:11:04.335Z,15.60
2022-12-06T06:16:08.462Z,15.88
2022-12-06T06:21:14.243Z,17.75
2022-12-06T06:26:17.892Z,18.92
2022-12-06T06:31:21.503Z,19.27
2022-12-06T06:36:26.228Z,18.45
2022-12-06T06:41:29.874Z,15.02
2022-12-06T06:46:33.524Z,12.57
2022-12-06T06:51:38.655Z,11.57
2022-12-06T06:56:42.213Z,10.38
2022-12-06T07:01:45.734Z,10.52
2022-12-06T07:06:50.484Z,10.50
2022-12-06T07:11:55.035Z,9.55
2022-12-06T07:16:58.499Z,9.88
2022-12-06T07:22:03.530Z,9.15
2022-12-06T07:27:07.372Z,8.07
2022-12-06T07:32:10.831Z,6.65
2022-12-06T07:37:18.207Z,7.10
2022-12-06T07:42:39.086Z,6.82
2022-12-06T07:47:44.413Z,8.15
2022-12-06T07:52:51.125Z,7.95
2022-12-06T07:57:54.629Z,8.55
2022-12-06T08:02:57.980Z,9.23
2022-12-06T08:08:02.809Z,8.98
2022-12-06T08:13:06.182Z,9.40
2022-12-06T08:18:09.532Z,9.73
2022-12-06T08:23:14.569Z,9.00
2022-12-06T08:28:18.170Z,8.65
2022-12-06T08:33:22.067Z,7.80
2022-12-06T08:38:26.812Z,6.75
2022-12-06T08:43:30.178Z,6.80
2022-12-06T08:48:35.307Z,6.95
2022-12-06T08:53:43.246Z,5.60
2022-12-06T08:58:46.607Z,5.85
2022-12-06T09:03:49.997Z,5.75
2022-12-06T09:08:56.075Z,7.13
2022-12-06T09:13:59.504Z,7.32
2022-12-06T09:19:02.944Z,7.43
2022-12-06T09:24:08.391Z,6.32
2022-12-06T09:29:13.136Z,6.60
2022-12-06T09:34:17.024Z,6.32
2022-12-06T09:39:24.658Z,6.57
2022-12-06T09:44:46.262Z,6.68
2022-12-06T09:50:01.560Z,7.25
2022-12-06T09:55:19.383Z,7.75
2022-12-06T10:00:24.710Z,7.80
2022-12-06T10:05:38.704Z,7.28
2022-12-06T10:10:54.648Z,7.80
2022-12-06T10:16:06.934Z,9.00
2022-12-06T10:21:18.667Z,8.77
2022-12-06T10:26:32.820Z,8.38
2022-12-06T10:31:45.643Z,9.55
2022-12-06T10:37:00.243Z,9.98
2022-12-06T10:42:11.050Z,9.45
2022-12-06T10:47:20.115Z,9.40
2022-12-06T10:52:35.981Z,9.25
2022-12-06T10:57:48.072Z,10.25
2022-12-06T11:02:58.871Z,10.48
2022-12-06T11:08:07.166Z,9.10
2022-12-06T11:13:21.170Z,9.00
2022-12-06T11:18:29.033Z,8.68
2022-12-06T11:23:39.703Z,8.13
2022-12-06T11:28:52.619Z,8.65
2022-12-06T11:33:56.731Z,9.35
2022-12-06T11:39:01.588Z,8.73
2022-12-06T11:44:07.754Z,8.38
2022-12-06T11:49:17.831Z,9.05
2022-12-06T11:54:25.302Z,8.02
2022-12-06T11:59:31.907Z,6.88
2022-12-06T12:04:38.361Z,7.05
2022-12-06T12:09:58.299Z,7.50
2022-12-06T12:15:03.584Z,8.45
2022-12-06T12:20:09.694Z,7.53
2022-12-06T12:25:25.841Z,8.55
2022-12-06T12:30:34.478Z,7.85
2022-12-06T12:35:39.381Z,8.38
2022-12-06T12:40:44.879Z,8.68
2022-12-06T12:46:09.114Z,8.32
2022-12-06T12:51:28.893Z,8.38
2022-12-06T12:56:36.333Z,8.80
2022-12-06T13:01:47.403Z,8.45
2022-12-06T13:06:53.501Z,8.48
2022-12-06T13:12:02.690Z,8.50
2022-12-06T13:17:10.061Z,7.00
2022-12-06T13:22:20.091Z,8.45
2022-12-06T13:27:24.843Z,8.85
2022-12-06T13:32:34.605Z,10.40
2022-12-06T13:37:44.671Z,8.77
2022-12-06T13:42:48.062Z,8.35
2022-12-06T13:47:52.881Z,9.15
2022-12-06T13:53:03.278Z,8.60
2022-12-06T13:58:39.469Z,10.48
2022-12-06T14:03:55.139Z,9.85
2022-12-06T14:09:00.232Z,11.57
2022-12-06T14:14:08.835Z,11.07
2022-12-06T14:19:19.971Z,10.73
2022-12-06T14:24:31.992Z,10.82
2022-12-06T14:29:35.538Z,11.23
2022-12-06T14:34:40.540Z,10.98
2022-12-06T14:39:52.865Z,10.40
2022-12-06T14:45:01.996Z,10.03
2022-12-06T14:50:29.683Z,8.93
2022-12-06T14:55:34.568Z,9.35
2022-12-06T15:00:48.653Z,8.10
2022-12-06T15:06:10.087Z,10.10
2022-12-06T15:11:44.501Z,9.20
2022-12-06T15:16:58.221Z,8.55
2022-12-06T15:22:04.182Z,9.65
2022-12-06T15:27:07.656Z,8.52
2022-12-06T15:32:13.968Z,8.50
2022-12-06T15:42:42.753Z,9.20
2022-12-06T15:47:46.181Z,9.35
2022-12-06T15:52:50.921Z,9.65
2022-12-06T15:57:54.526Z,9.43
2022-12-06T16:02:58.036Z,9.52
2022-12-06T16:08:06.687Z,11.13
2022-12-06T16:13:25.028Z,12.02
2022-12-06T16:18:28.430Z,11.70
2022-12-06T16:29:16.960Z,13.18
2022-12-06T16:34:20.887Z,11.68
2022-12-06T16:39:26.406Z,14.13
2022-12-06T16:44:30.619Z,15.15
2022-12-06T16:49:49.686Z,14.65
2022-12-06T16:54:54.599Z,14.13
2022-12-06T16:59:57.984Z,14.27
2022-12-06T17:05:06.383Z,15.10
2022-12-06T17:10:13.316Z,12.70
2022-12-06T17:15:18.579Z,13.38
2022-12-06T17:20:22.035Z,14.88
2022-12-06T17:25:26.825Z,13.80
2022-12-06T17:30:30.248Z,13.05
2022-12-06T17:35:36.418Z,12.25
2022-12-06T17:40:41.176Z,13.27
2022-12-06T17:45:45.249Z,12.95
2022-12-06T17:50:48.741Z,13.88
2022-12-06T17:55:53.479Z,12.30
2022-12-06T18:00:59.928Z,12.45
2022-12-06T18:06:08.941Z,11.20
2022-12-06T18:11:15.435Z,12.02
2022-12-06T18:16:20.676Z,12.13
2022-12-06T18:21:25.470Z,11.20
2022-12-06T18:26:30.318Z,12.50
2022-12-06T18:31:35.329Z,11.15
2022-12-06T18:36:38.988Z,11.55
2022-12-06T18:41:44.094Z,10.93
2022-12-06T18:46:48.245Z,11.90
2022-12-06T18:51:51.641Z,11.73
2022-12-06T18:56:57.892Z,13.73
2022-12-06T19:02:01.336Z,12.63
2022-12-06T19:07:04.813Z,12.25
2022-12-06T19:12:09.908Z,12.80
2022-12-06T19:17:13.762Z,12.70
2022-12-06T19:22:17.165Z,12.60
2022-12-06T19:27:21.901Z,11.75
2022-12-06T19:32:25.419Z,12.23
2022-12-06T19:37:29.813Z,12.90
2022-12-06T19:42:53.471Z,12.68
2022-12-06T19:53:00.652Z,11.50
2022-12-06T19:58:05.877Z,12.52
2022-12-06T20:03:09.350Z,12.13
2022-12-06T20:08:13.039Z,11.57
2022-12-06T20:13:17.834Z,11.93
2022-12-06T20:18:21.216Z,11.77
2022-12-06T20:23:26.226Z,11.70
2022-12-06T20:28:30.988Z,12.25
2022-12-06T20:33:34.434Z,11.15
2022-12-06T20:38:37.924Z,11.85
2022-12-06T20:43:43.472Z,11.82
2022-12-06T20:48:47.591Z,13.35
2022-12-06T20:53:53.264Z,12.13
2022-12-06T20:59:00.269Z,11.27
2022-12-06T21:04:04.243Z,10.93
2022-12-06T21:09:07.896Z,11.13
2022-12-06T21:14:14.218Z,10.90
2022-12-06T21:19:19.909Z,10.93
2022-12-06T21:24:23.439Z,10.57
2022-12-06T21:29:30.869Z,11.38
2022-12-06T21:34:34.980Z,10.35
2022-12-06T21:39:39.033Z,10.30
2022-12-06T21:44:43.790Z,10.32
2022-12-06T21:49:47.375Z,9.20
2022-12-06T21:54:50.883Z,12.25
2022-12-06T21:59:55.852Z,10.20
2022-12-06T22:04:59.284Z,9.15
2022-12-06T22:10:03.374Z,10.38
2022-12-06T22:15:09.713Z,10.43
2022-12-06T22:20:13.552Z,9.20
2022-12-06T22:25:19.550Z,9.80
2022-12-06T22:30:24.592Z,9.65
2022-12-06T22:35:28.254Z,10.65
2022-12-06T22:40:31.673Z,8.88
2022-12-06T22:45:36.496Z,9.88
2022-12-06T22:50:40.201Z,10.77
2022-12-06T22:55:43.829Z,9.77
2022-12-06T23:00:48.584Z,9.23
2022-12-06T23:05:59.081Z,8.98
2022-12-06T23:11:03.500Z,9.35
2022-12-06T23:16:12.554Z,8.88
2022-12-06T23:21:18.926Z,8.23
2022-12-06T23:26:24.833Z,7.80
2022-12-06T23:31:31.114Z,7.43
2022-12-06T23:36:36.608Z,7.10
2022-12-06T23:41:40.439Z,7.63
2022-12-06T23:46:46.000Z,6.38
2022-12-06T23:51:49.926Z,7.50
2022-12-06T23:56:53.310Z,7.03
